Time;durP1;ratioP1;P1;durP2;ratioP2;P2;SDS_P1;SDS_P2;PMS_P1;PMS_P2;Temp;Humidity;BMP_temperature;BMP_pressure;BME280_temperature;BME280_humidity;BME280_pressure;Samples;Min_cycle;Max_cycle;Signal;HPM_P1;HPM_P2
2022/03/21 00:01:00;;;;;;;7.73;4.00;;;2.80;51.30;2.50;102649.00;;;;4934462;28;109387;-67
2022/03/21 00:03:28;;;;;;;5.60;3.70;;;2.70;51.40;2.50;102652.00;;;;4916675;28;113876;-68
2022/03/21 00:05:56;;;;;;;6.40;3.80;;;2.70;51.60;2.50;102645.00;;;;4916061;28;109949;-68
2022/03/21 00:08:22;;;;;;;7.97;4.83;;;2.70;51.80;2.50;102645.00;;;;4936779;28;92955;-67
2022/03/21 00:10:49;;;;;;;7.40;4.87;;;2.70;52.00;2.50;102648.00;;;;4935842;28;92936;-69
2022/03/21 00:13:15;;;;;;;5.43;4.00;;;2.70;52.00;2.50;102644.00;;;;4916882;28;94543;-68
2022/03/21 00:15:43;;;;;;;5.77;3.97;;;2.70;52.20;2.40;102643.00;;;;4934336;28;122661;-67
2022/03/21 00:18:09;;;;;;;6.57;4.00;;;2.70;52.40;2.40;102641.00;;;;4936385;28;92707;-68
2022/03/21 00:20:35;;;;;;;4.27;3.77;;;2.70;52.80;2.40;102638.00;;;;4924324;28;92817;-68
2022/03/21 00:23:02;;;;;;;7.63;4.70;;;2.70;53.20;2.40;102629.00;;;;4935768;28;93147;-68
2022/03/21 00:25:28;;;;;;;6.33;4.07;;;2.60;53.20;2.40;102626.00;;;;4934943;28;93220;-69
2022/03/21 00:27:54;;;;;;;4.23;3.80;;;2.60;53.40;2.40;102627.00;;;;4935705;28;92877;-70
2022/03/21 00:30:20;;;;;;;6.90;4.63;;;2.60;53.50;2.30;102617.00;;;;4933577;28;108849;-69
2022/03/21 00:32:46;;;;;;;6.20;4.47;;;2.60;53.50;2.30;102616.00;;;;4934603;28;94097;-69
2022/03/21 00:35:15;;;;;;;7.63;5.07;;;2.50;53.60;2.30;102622.00;;;;4935205;28;92828;-69
2022/03/21 00:37:42;;;;;;;6.67;4.20;;;2.50;53.50;2.30;102628.00;;;;4936139;28;93349;-70
2022/03/21 00:40:09;;;;;;;5.83;4.03;;;2.50;53.60;2.30;102621.00;;;;4916862;28;93209;-69
2022/03/21 00:42:35;;;;;;;5.73;4.87;;;2.50;53.60;2.20;102625.00;;;;4933736;28;111453;-69
2022/03/21 00:45:09;;;;;;;5.97;4.17;;;2.60;53.60;2.20;102634.00;;;;4934278;28;99292;-69
2022/03/21 00:47:35;;;;;;;5.60;4.33;;;2.50;53.40;2.20;102631.00;;;;4936026;28;92583;-69
2022/03/21 00:50:02;;;;;;;6.03;4.40;;;2.40;53.30;2.10;102638.00;;;;4934738;28;92894;-68
2022/03/21 00:52:29;;;;;;;5.50;4.20;;;2.40;53.30;2.00;102633.00;;;;4934133;28;95054;-68
2022/03/21 00:54:55;;;;;;;6.17;3.67;;;2.40;53.40;2.00;102629.00;;;;4933583;28;94740;-70
2022/03/21 00:57:20;;;;;;;5.93;3.80;;;2.30;53.40;1.90;102634.00;;;;4916719;28;110122;-69
2022/03/21 00:59:46;;;;;;;6.33;3.70;;;2.20;53.40;1.90;102624.00;;;;4934089;28;105551;-68
2022/03/21 01:02:12;;;;;;;5.10;4.10;;;2.20;53.60;1.80;102623.00;;;;4934479;28;93019;-69
2022/03/21 01:04:39;;;;;;;7.53;4.37;;;2.20;53.80;1.80;102620.00;;;;4934285;28;93856;-69
2022/03/21 01:07:05;;;;;;;7.17;4.43;;;2.00;53.70;1.70;102618.00;;;;4934780;28;92939;-68
2022/03/21 01:09:31;;;;;;;8.23;3.50;;;2.00;54.00;1.70;102614.00;;;;4934775;28;92980;-68
2022/03/21 01:11:57;;;;;;;6.07;3.90;;;1.90;54.00;1.60;102619.00;;;;4936154;28;92553;-69
2022/03/21 01:14:22;;;;;;;6.33;4.97;;;1.90;54.10;1.60;102613.00;;;;4953194;28;122378;-68
2022/03/21 01:16:50;;;;;;;7.23;4.70;;;1.90;54.50;1.60;102613.00;;;;4953727;28;109962;-69
2022/03/21 01:19:15;;;;;;;5.13;4.40;;;1.90;54.50;1.50;102615.00;;;;4954115;28;94011;-69
2022/03/21 01:21:41;;;;;;;5.47;3.37;;;1.80;54.80;1.50;102623.00;;;;4953078;28;122763;-69
2022/03/21 01:24:07;;;;;;;8.43;5.33;;;1.80;55.10;1.50;102612.00;;;;4953183;28;120935;-70
2022/03/21 01:26:32;;;;;;;9.00;5.40;;;1.70;55.20;1.50;102597.00;;;;4953129;28;110115;-70
2022/03/21 01:28:58;;;;;;;8.50;4.50;;;1.70;55.30;1.50;102597.00;;;;4952712;28;109866;-69
2022/03/21 01:31:24;;;;;;;10.03;4.93;;;1.70;55.30;1.50;102593.00;;;;4952560;28;122465;-70
2022/03/21 01:33:53;;;;;;;3.80;3.17;;;1.70;55.40;1.40;102590.00;;;;4953167;28;92735;-69
2022/03/21 01:36:20;;;;;;;8.60;4.63;;;1.70;55.50;1.40;102584.00;;;;4954070;28;92004;-69
2022/03/21 01:38:45;;;;;;;8.47;4.83;;;1.90;55.70;1.40;102592.00;;;;4953857;28;92842;-69
2022/03/21 01:41:11;;;;;;;6.80;4.33;;;1.60;55.80;1.40;102594.00;;;;4952809;28;115872;-70
2022/03/21 01:43:58;;;;;;;4.50;3.03;;;1.60;55.80;1.30;102594.00;;;;4946457;28;105039;-69
2022/03/21 01:46:24;;;;;;;5.43;3.67;;;1.60;55.50;1.30;102599.00;;;;4932430;28;92993;-69
2022/03/21 01:48:50;;;;;;;7.67;3.47;;;1.60;55.60;1.30;102589.00;;;;4934262;28;92694;-68
2022/03/21 01:51:16;;;;;;;5.77;4.03;;;1.60;55.50;1.20;102586.00;;;;4933465;28;103509;-70
2022/03/21 01:56:26;;;;;;;6.93;4.63;;;1.50;55.50;1.10;102588.00;;;;4933442;28;93035;-71
2022/03/21 01:58:53;;;;;;;4.97;3.63;;;1.40;55.50;1.00;102592.00;;;;4899634;28;92755;-69
2022/03/21 02:01:19;;;;;;;7.77;4.50;;;1.30;55.50;0.90;102595.00;;;;4933472;28;93319;-69
2022/03/21 02:03:45;;;;;;;7.37;4.20;;;1.30;55.60;0.90;102585.00;;;;4914809;28;92892;-69
2022/03/21 02:06:11;;;;;;;7.53;4.60;;;1.30;55.50;0.80;102594.00;;;;4933353;28;92820;-69
2022/03/21 02:08:37;;;;;;;5.07;3.30;;;1.20;55.60;0.80;102595.00;;;;4933555;28;98970;-69
2022/03/21 02:11:04;;;;;;;8.03;3.73;;;1.10;55.60;0.70;102584.00;;;;4931869;28;121484;-68
2022/03/21 02:13:30;;;;;;;8.47;4.43;;;1.10;55.60;0.70;102583.00;;;;4915106;28;115377;-69
2022/03/21 02:15:55;;;;;;;4.70;4.23;;;1.00;55.60;0.60;102582.00;;;;4934107;28;92759;-69
2022/03/21 02:18:24;;;;;;;4.70;2.97;;;1.00;55.60;0.50;102574.00;;;;4933502;28;108945;-69
2022/03/21 02:20:53;;;;;;;5.53;3.23;;;0.80;55.70;0.50;102577.00;;;;4933503;28;93064;-69
2022/03/21 02:23:43;;;;;;;5.93;3.63;;;0.80;55.90;0.40;102581.00;;;;4933108;28;92997;-69
2022/03/21 02:26:12;;;;;;;4.40;2.67;;;0.70;56.00;0.30;102568.00;;;;4915933;28;92245;-69
2022/03/21 02:28:39;;;;;;;5.67;3.23;;;0.70;56.10;0.20;102578.00;;;;4933040;28;108943;-69
2022/03/21 02:31:05;;;;;;;5.77;3.57;;;0.60;56.20;0.10;102580.00;;;;4914952;28;93231;-69
2022/03/21 02:33:31;;;;;;;3.90;2.80;;;0.60;56.40;0.00;102587.00;;;;4932980;28;94087;-69
2022/03/21 02:35:59;;;;;;;3.67;3.37;;;0.40;56.50;0.00;102595.00;;;;4914385;28;108808;-69
2022/03/21 02:38:26;;;;;;;3.80;3.07;;;0.40;56.70;-0.10;102590.00;;;;4934240;28;92742;-69
2022/03/21 02:40:53;;;;;;;4.43;3.67;;;0.30;56.80;-0.20;102592.00;;;;4914886;28;92984;-69
2022/03/21 02:43:18;;;;;;;4.97;3.13;;;0.20;56.90;-0.30;102596.00;;;;4932595;28;108333;-68
2022/03/21 02:45:44;;;;;;;4.73;3.10;;;0.00;56.90;-0.50;102600.00;;;;4935541;28;108823;-69
2022/03/21 02:48:14;;;;;;;4.23;3.43;;;0.00;57.20;-0.60;102594.00;;;;4950998;28;108333;-68
2022/03/21 02:50:53;;;;;;;5.87;3.60;;;-0.10;57.50;-0.70;102594.00;;;;4932940;28;93197;-69
2022/03/21 02:53:21;;;;;;;9.27;4.27;;;-0.20;57.70;-0.70;102587.00;;;;4915724;28;93133;-69
2022/03/21 02:55:53;;;;;;;6.33;3.60;;;-0.30;58.00;-0.70;102593.00;;;;4914965;28;92833;-69
2022/03/21 02:58:18;;;;;;;5.30;3.10;;;-0.40;58.20;-0.80;102572.00;;;;4914294;28;101202;-69
2022/03/21 03:00:44;;;;;;;6.57;3.83;;;-0.40;58.60;-0.80;102574.00;;;;4931565;28;123095;-68
2022/03/21 03:03:10;;;;;;;5.47;4.63;;;-0.40;59.00;-0.80;102576.00;;;;4931514;28;123083;-68
2022/03/21 03:05:35;;;;;;;4.90;3.73;;;-0.40;59.40;-0.80;102581.00;;;;4932059;28;110410;-69
2022/03/21 03:08:03;;;;;;;5.63;3.50;;;-0.50;59.50;-0.90;102577.00;;;;4932556;28;108315;-69
2022/03/21 03:10:30;;;;;;;5.30;4.43;;;-0.50;59.60;-0.90;102573.00;;;;4932208;28;94251;-68
2022/03/21 03:12:55;;;;;;;4.27;2.57;;;-0.40;59.60;-0.90;102571.00;;;;4932912;28;93740;-68
2022/03/21 03:15:21;;;;;;;4.87;3.43;;;-0.60;59.60;-1.00;102559.00;;;;4946028;28;109415;-68
2022/03/21 03:17:47;;;;;;;5.47;4.10;;;-0.70;59.70;-1.00;102560.00;;;;4953066;28;93040;-68
2022/03/21 03:20:13;;;;;;;5.63;3.57;;;-0.60;60.00;-1.00;102560.00;;;;4951013;28;122853;-68
2022/03/21 03:22:39;;;;;;;5.10;4.27;;;-0.50;60.30;-1.00;102561.00;;;;4951815;28;93901;-69
2022/03/21 03:25:06;;;;;;;4.50;3.53;;;-0.60;60.40;-1.00;102560.00;;;;4934226;28;92837;-68
2022/03/21 03:27:32;;;;;;;5.30;4.70;;;-0.70;60.20;-1.00;102559.00;;;;4953249;28;92667;-68
2022/03/21 03:29:59;;;;;;;3.53;3.23;;;-0.60;60.30;-1.00;102561.00;;;;4951692;28;99418;-70
2022/03/21 03:32:25;;;;;;;5.80;3.20;;;-0.70;60.40;-1.00;102563.00;;;;4952215;28;93407;-69
2022/03/21 03:34:51;;;;;;;8.63;4.13;;;-0.60;60.50;-1.00;102566.00;;;;4952732;28;93272;-69
2022/03/21 03:37:17;;;;;;;5.00;3.53;;;-0.60;60.40;-0.90;102565.00;;;;4932856;28;109314;-69
2022/03/21 03:39:44;;;;;;;4.67;3.67;;;-0.60;60.40;-0.90;102568.00;;;;4952030;28;111677;-69
2022/03/21 03:42:09;;;;;;;8.53;4.50;;;-0.60;60.40;-0.90;102562.00;;;;4914198;28;122542;-69
2022/03/21 03:44:35;;;;;;;4.83;3.40;;;-0.60;60.20;-1.00;102563.00;;;;4929727;28;108743;-70
2022/03/21 03:47:01;;;;;;;5.83;3.03;;;-0.50;60.10;-1.00;102567.00;;;;4929612;28;109317;-69
2022/03/21 03:49:27;;;;;;;7.93;4.17;;;-0.50;60.10;-1.00;102572.00;;;;4934356;28;94031;-69
2022/03/21 03:51:52;;;;;;;5.73;3.57;;;-0.60;60.00;-1.00;102570.00;;;;4951858;28;93052;-69
2022/03/21 03:54:18;;;;;;;5.40;3.63;;;-0.50;60.20;-1.00;102569.00;;;;4950578;28;110318;-69
2022/03/21 03:56:44;;;;;;;8.00;3.97;;;-0.70;60.30;-1.00;102568.00;;;;4953187;28;109447;-70
2022/03/21 03:59:10;;;;;;;5.53;4.10;;;-0.60;60.50;-1.00;102567.00;;;;4937128;28;95015;-69
2022/03/21 04:01:38;;;;;;;5.57;3.80;;;-0.50;60.60;-1.00;102573.00;;;;4954756;28;112824;-69
2022/03/21 04:04:04;;;;;;;4.77;3.50;;;-0.60;60.50;-1.00;102569.00;;;;4956100;28;92033;-70
2022/03/21 04:06:29;;;;;;;6.00;3.53;;;-0.20;60.60;-1.00;102569.00;;;;4936441;28;107545;-69
2022/03/21 04:08:55;;;;;;;3.83;3.47;;;-0.60;60.40;-1.10;102574.00;;;;4954345;28;123112;-69
2022/03/21 04:11:21;;;;;;;4.17;3.50;;;-0.70;60.40;-1.20;102576.00;;;;4945321;28;101609;-69
2022/03/21 04:13:47;;;;;;;4.83;4.20;;;-0.80;60.60;-1.30;102580.00;;;;4935874;28;92992;-69
2022/03/21 04:16:16;;;;;;;4.57;3.47;;;-0.80;60.90;-1.40;102578.00;;;;4935275;28;93301;-69
2022/03/21 04:18:42;;;;;;;5.47;4.57;;;-0.90;61.10;-1.50;102573.00;;;;4935744;28;94099;-69
2022/03/21 04:21:08;;;;;;;7.23;4.97;;;-1.10;61.50;-1.60;102566.00;;;;4933845;28;122141;-69
2022/03/21 04:23:34;;;;;;;6.27;4.33;;;-1.10;61.80;-1.70;102573.00;;;;4934735;28;109472;-70
2022/03/21 04:26:00;;;;;;;5.20;4.63;;;-1.20;62.00;-1.80;102575.00;;;;4935853;28;92870;-69
2022/03/21 04:28:25;;;;;;;5.60;4.17;;;-1.40;62.10;-1.90;102579.00;;;;4934971;28;123372;-70
2022/03/21 04:30:51;;;;;;;5.23;3.83;;;-1.40;62.40;-2.00;102581.00;;;;4912358;28;121553;-69
2022/03/21 04:33:17;;;;;;;9.57;4.40;;;-1.60;62.90;-2.10;102575.00;;;;4916248;28;92701;-69
2022/03/21 04:35:44;;;;;;;6.40;3.90;;;-1.60;63.10;-2.10;102565.00;;;;4915657;28;93831;-69
2022/03/21 04:38:14;;;;;;;7.83;4.00;;;-1.60;63.50;-2.20;102571.00;;;;4915587;28;94033;-69
2022/03/21 04:40:47;;;;;;;8.40;3.37;;;-1.80;63.70;-2.20;102569.00;;;;4930164;28;93199;-69
2022/03/21 04:43:14;;;;;;;4.53;3.67;;;-1.80;64.00;-2.20;102575.00;;;;4932806;28;92831;-70
2022/03/21 04:45:42;;;;;;;6.37;4.37;;;-1.70;64.40;-2.20;102572.00;;;;4915812;28;92802;-69
2022/03/21 04:48:09;;;;;;;4.67;4.07;;;-1.80;64.60;-2.30;102560.00;;;;4913690;28;93715;-69
2022/03/21 04:50:34;;;;;;;8.67;5.03;;;-1.80;64.90;-2.20;102575.00;;;;4915340;28;93087;-69
2022/03/21 04:53:01;;;;;;;7.30;4.87;;;-1.80;65.10;-2.20;102576.00;;;;4916288;28;91862;-70
2022/03/21 04:55:28;;;;;;;5.37;3.73;;;-1.80;65.30;-2.30;102573.00;;;;4915328;28;93011;-70
2022/03/21 04:57:54;;;;;;;4.53;4.03;;;-2.50;65.00;-2.30;102579.00;;;;4924513;28;93101;-70
2022/03/21 05:00:19;;;;;;;5.20;3.70;;;-1.80;65.60;-2.20;102584.00;;;;4933482;28;114221;-70
2022/03/21 05:02:45;;;;;;;6.53;4.57;;;-1.80;65.70;-2.20;102587.00;;;;4934092;28;111444;-70
2022/03/21 05:05:11;;;;;;;8.97;4.87;;;-1.80;65.80;-2.10;102591.00;;;;4933771;28;108615;-70
2022/03/21 05:07:41;;;;;;;9.57;3.90;;;-1.70;66.00;-1.90;102586.00;;;;4933402;28;93197;-70
2022/03/21 05:10:08;;;;;;;5.03;4.13;;;-1.60;66.20;-1.80;102590.00;;;;4933714;28;114879;-70
2022/03/21 05:12:35;;;;;;;5.53;4.47;;;-1.50;66.30;-1.80;102593.00;;;;4933163;28;92901;-70
2022/03/21 05:15:00;;;;;;;5.60;4.80;;;-1.40;66.30;-1.70;102585.00;;;;4918760;28;94557;-70
2022/03/21 05:17:29;;;;;;;5.83;3.70;;;-1.40;66.30;-1.60;102590.00;;;;4914681;28;121885;-70
2022/03/21 05:19:55;;;;;;;7.47;4.60;;;-1.30;66.40;-1.60;102590.00;;;;4912536;28;104532;-70
2022/03/21 05:22:21;;;;;;;8.53;3.17;;;-1.20;66.30;-1.50;102586.00;;;;4914150;28;98851;-70
2022/03/21 05:35:55;;;;;;;10.20;5.30;;;-1.10;67.10;-1.30;102575.00;;;;4910589;28;93230;-69
2022/03/21 05:38:29;;;;;;;6.50;4.50;;;-1.00;67.30;-1.20;102596.00;;;;4919120;28;92967;-69
2022/03/21 05:41:00;;;;;;;6.30;4.47;;;-0.90;67.70;-1.10;102587.00;;;;4909719;28;93049;-69
2022/03/21 05:43:28;;;;;;;5.53;4.10;;;-0.70;67.80;-1.00;102594.00;;;;4919429;28;92266;-69
2022/03/21 05:45:55;;;;;;;6.03;3.53;;;-0.70;67.70;-0.90;102597.00;;;;4912551;28;92923;-69
2022/03/21 05:51:06;;;;;;;7.50;4.30;;;-0.50;67.60;-0.70;102601.00;;;;4910694;28;93966;-68
2022/03/21 05:53:32;;;;;;;3.87;3.43;;;-0.30;67.60;-0.50;102610.00;;;;4910799;28;97993;-69
2022/03/21 05:56:00;;;;;;;5.03;4.20;;;-0.20;67.50;-0.40;102595.00;;;;4910940;28;92991;-69
2022/03/21 05:58:29;;;;;;;6.97;4.33;;;-0.10;67.50;-0.30;102605.00;;;;4911786;28;94279;-68
2022/03/21 06:00:55;;;;;;;6.33;4.37;;;0.10;67.40;-0.10;102599.00;;;;4912399;28;93040;-69
2022/03/21 06:03:22;;;;;;;7.43;4.07;;;0.20;67.10;0.00;102607.00;;;;4914847;28;92601;-69
2022/03/21 06:05:48;;;;;;;6.57;3.73;;;0.90;68.00;0.10;102608.00;;;;4911563;28;109306;-68
2022/03/21 06:08:14;;;;;;;4.23;3.17;;;0.40;66.50;0.30;102613.00;;;;4913412;28;92230;-68
2022/03/21 06:10:40;;;;;;;4.77;3.53;;;0.50;66.30;0.40;102615.00;;;;4913059;28;122657;-68
2022/03/21 06:13:06;;;;;;;6.73;3.67;;;0.60;66.00;0.60;102616.00;;;;4914934;28;93104;-68
2022/03/21 06:15:36;;;;;;;8.50;5.20;;;0.80;65.50;0.80;102616.00;;;;4912347;28;93824;-68
2022/03/21 06:18:08;;;;;;;11.27;5.00;;;0.90;65.20;1.00;102618.00;;;;4914400;28;97311;-68
2022/03/21 06:20:34;;;;;;;4.63;3.30;;;1.10;65.00;1.20;102617.00;;;;4910923;28;109362;-69
2022/03/21 06:22:59;;;;;;;6.53;4.93;;;1.40;64.70;1.50;102617.00;;;;4914173;28;108870;-68
2022/03/21 06:25:25;;;;;;;6.27;4.83;;;1.60;64.10;1.70;102621.00;;;;4913933;28;93171;-68
2022/03/21 06:27:51;;;;;;;6.50;5.13;;;1.80;63.20;2.00;102621.00;;;;4914900;28;93113;-68
2022/03/21 06:30:17;;;;;;;7.37;4.33;;;2.10;62.70;2.30;102629.00;;;;4912716;28;122610;-69
2022/03/21 06:32:42;;;;;;;5.63;4.50;;;2.40;62.50;2.50;102628.00;;;;4933775;28;92011;-68
2022/03/21 06:35:11;;;;;;;8.20;5.20;;;2.90;62.50;2.80;102635.00;;;;4938678;28;108520;-69
2022/03/21 06:37:40;;;;;;;10.87;6.23;;;2.90;61.70;3.20;102631.00;;;;4950351;28;93064;-68
2022/03/21 06:40:07;;;;;;;9.50;5.57;;;3.20;61.00;3.50;102641.00;;;;4934224;28;93811;-68
2022/03/21 06:42:32;;;;;;;9.67;5.10;;;3.50;60.10;3.80;102632.00;;;;4952901;28;101352;-68
2022/03/21 06:44:58;;;;;;;9.20;4.77;;;3.90;59.60;4.10;102642.00;;;;4934725;28;101232;-68
2022/03/21 06:47:24;;;;;;;9.53;4.90;;;4.10;58.80;4.40;102642.00;;;;4933010;28;111336;-68
2022/03/21 06:49:49;;;;;;;8.43;5.90;;;4.40;58.10;4.60;102649.00;;;;4934580;28;113581;-70
2022/03/21 06:52:18;;;;;;;6.83;4.40;;;4.70;57.10;4.90;102659.00;;;;4936337;28;109802;-68
2022/03/21 06:54:47;;;;;;;6.63;4.83;;;4.90;56.20;5.10;102651.00;;;;4934263;28;92816;-69
2022/03/21 06:57:12;;;;;;;6.53;4.37;;;5.10;55.70;5.30;102650.00;;;;4932887;28;93074;-69
2022/03/21 06:59:38;;;;;;;6.50;4.23;;;5.30;55.40;5.60;102662.00;;;;4934396;28;92901;-68
2022/03/21 07:02:05;;;;;;;5.97;4.00;;;5.60;54.60;5.80;102655.00;;;;4932589;28;110628;-68
2022/03/21 07:04:31;;;;;;;8.37;4.13;;;5.80;53.60;6.00;102654.00;;;;4936028;28;93861;-68
2022/03/21 07:06:57;;;;;;;7.57;3.53;;;6.60;52.40;6.10;102657.00;;;;4953062;28;93394;-67
2022/03/21 07:09:24;;;;;;;7.07;4.20;;;6.20;51.00;6.30;102659.00;;;;4951339;28;93793;-67
2022/03/21 07:11:51;;;;;;;6.17;4.07;;;6.90;51.00;6.50;102663.00;;;;4952879;28;92977;-67
2022/03/21 07:14:17;;;;;;;6.53;4.17;;;7.10;51.30;6.70;102658.00;;;;4952584;28;93016;-67
2022/03/21 07:16:42;;;;;;;5.80;3.90;;;6.70;50.10;6.90;102663.00;;;;4950885;28;93645;-68
2022/03/21 07:19:08;;;;;;;5.27;4.23;;;6.90;50.00;7.10;102669.00;;;;4951189;28;92812;-68
2022/03/21 07:21:34;;;;;;;7.33;4.20;;;7.50;48.60;7.30;102666.00;;;;4934058;28;109417;-68
2022/03/21 07:23:59;;;;;;;3.87;3.23;;;7.30;48.70;7.50;102658.00;;;;4941405;28;97227;-67
2022/03/21 07:26:25;;;;;;;7.57;3.47;;;7.90;48.80;7.80;102664.00;;;;4932152;28;97817;-68
2022/03/21 07:28:51;;;;;;;5.83;3.53;;;7.80;47.60;8.00;102665.00;;;;4915986;28;93859;-67
2022/03/21 07:31:17;;;;;;;4.93;3.57;;;7.90;45.90;8.10;102671.00;;;;4942555;28;109819;-67
2022/03/21 07:33:42;;;;;;;5.07;3.50;;;8.10;46.20;8.30;102669.00;;;;4954948;28;109480;-69
2022/03/21 07:36:09;;;;;;;5.27;3.43;;;8.20;46.50;8.50;102667.00;;;;4952246;28;93421;-71
2022/03/21 07:38:36;;;;;;;6.40;4.00;;;8.50;46.20;8.80;102664.00;;;;4937208;28;111934;-67
2022/03/21 07:41:06;;;;;;;6.50;3.40;;;8.70;45.50;9.00;102662.00;;;;4955298;28;101822;-69
2022/03/21 07:43:32;;;;;;;5.57;3.67;;;8.90;45.00;9.20;102666.00;;;;4918230;28;92684;-68
2022/03/21 07:48:42;;;;;;;5.87;3.60;;;9.30;43.00;9.40;102670.00;;;;4921296;28;92905;-69
2022/03/21 07:51:08;;;;;;;4.80;3.70;;;9.40;42.10;9.50;102666.00;;;;4955428;28;93134;-67
2022/03/21 07:53:34;;;;;;;6.67;3.47;;;9.50;42.20;9.70;102668.00;;;;4953998;28;108319;-69
2022/03/21 07:56:00;;;;;;;11.27;4.33;;;9.60;41.60;9.80;102664.00;;;;4954972;28;93175;-67
2022/03/21 07:58:27;;;;;;;4.17;2.70;;;9.80;42.00;10.10;102666.00;;;;4954792;28;122590;-68
2022/03/21 08:00:52;;;;;;;6.63;3.33;;;10.00;41.60;10.40;102665.00;;;;4954988;28;93030;-68
2022/03/21 08:03:18;;;;;;;6.13;3.70;;;10.30;39.60;10.40;102653.00;;;;4953944;28;109263;-67
2022/03/21 08:05:44;;;;;;;4.17;2.77;;;10.30;39.50;10.50;102657.00;;;;4934549;28;122769;-69
2022/03/21 08:08:09;;;;;;;3.43;2.60;;;10.40;38.60;10.50;102668.00;;;;4934935;28;122171;-67
2022/03/21 08:10:36;;;;;;;6.40;3.37;;;10.50;37.80;10.40;102659.00;;;;4936121;28;92119;-69
2022/03/21 08:13:01;;;;;;;4.93;3.43;;;10.50;38.00;10.50;102668.00;;;;4945046;28;92708;-69
2022/03/21 08:15:28;;;;;;;4.67;3.20;;;10.50;38.20;10.60;102663.00;;;;4945627;28;93456;-68
2022/03/21 08:17:59;;;;;;;4.47;2.93;;;10.60;38.10;10.70;102673.00;;;;4936612;28;95170;-68
2022/03/21 08:20:34;;;;;;;5.40;3.70;;;10.70;37.60;10.70;102674.00;;;;4917832;28;93048;-67
2022/03/21 08:23:02;;;;;;;5.17;3.50;;;10.70;36.60;10.60;102667.00;;;;4936086;28;92977;-68
2022/03/21 08:25:28;;;;;;;7.07;3.57;;;10.60;36.90;10.70;102672.00;;;;4919406;28;93862;-67
2022/03/21 08:27:54;;;;;;;3.93;3.03;;;10.60;37.20;10.80;102662.00;;;;4934672;28;93804;-67
2022/03/21 08:30:20;;;;;;;4.07;2.57;;;10.70;37.00;10.80;102661.00;;;;4935147;28;98431;-67
2022/03/21 08:32:47;;;;;;;5.13;2.50;;;10.80;36.50;10.90;102678.00;;;;4951869;28;92824;-68
2022/03/21 08:35:14;;;;;;;4.30;2.83;;;10.90;36.40;10.90;102657.00;;;;4953727;28;92197;-68
2022/03/21 08:37:40;;;;;;;7.77;3.87;;;10.90;36.10;11.00;102666.00;;;;4954313;28;115503;-68
2022/03/21 08:40:08;;;;;;;4.03;3.27;;;11.00;36.40;11.30;102654.00;;;;4939589;28;93023;-68
2022/03/21 08:42:34;;;;;;;7.87;2.97;;;11.20;36.20;11.40;102656.00;;;;4934983;28;94102;-69
2022/03/21 08:45:00;;;;;;;4.90;2.90;;;11.30;35.80;11.50;102669.00;;;;4935383;28;92803;-68
2022/03/21 08:47:25;;;;;;;3.30;2.57;;;11.50;34.70;11.60;102661.00;;;;4934006;28;122026;-69
2022/03/21 08:49:51;;;;;;;4.63;2.77;;;11.60;34.70;11.80;102650.00;;;;4949153;28;106958;-68
2022/03/21 08:52:19;;;;;;;6.27;3.73;;;11.60;34.50;11.90;102658.00;;;;4953750;28;108673;-68
2022/03/21 08:54:45;;;;;;;7.30;3.37;;;11.80;33.30;11.80;102652.00;;;;4954001;28;94205;-68
2022/03/21 08:57:11;;;;;;;4.53;2.57;;;11.80;32.40;11.70;102657.00;;;;4954238;28;98413;-68
2022/03/21 08:59:37;;;;;;;4.13;2.83;;;11.70;32.00;11.70;102657.00;;;;4943102;28;92147;-68
2022/03/21 09:02:04;;;;;;;3.37;2.17;;;11.70;32.40;11.80;102658.00;;;;4934649;28;94056;-69
2022/03/21 09:04:30;;;;;;;3.33;2.13;;;11.80;31.30;11.80;102651.00;;;;4934142;28;94129;-69
2022/03/21 09:06:56;;;;;;;3.53;2.33;;;11.80;31.20;11.70;102665.00;;;;4933480;28;93585;-68
2022/03/21 09:09:22;;;;;;;5.23;2.23;;;11.70;30.90;11.70;102655.00;;;;4934410;28;111091;-67
2022/03/21 09:11:48;;;;;;;3.33;1.83;;;11.70;30.70;11.60;102650.00;;;;4939554;28;105147;-68
2022/03/21 09:14:15;;;;;;;4.77;2.63;;;11.60;30.60;11.60;102656.00;;;;4953142;28;103464;-68
2022/03/21 09:16:43;;;;;;;3.00;2.00;;;11.60;31.20;11.70;102661.00;;;;4934765;28;122636;-68
2022/03/21 09:19:10;;;;;;;2.83;2.10;;;11.60;31.00;11.70;102643.00;;;;4942969;28;92771;-68
2022/03/21 09:21:36;;;;;;;3.50;2.90;;;11.70;31.00;11.90;102650.00;;;;4934786;28;92931;-68
2022/03/21 09:24:03;;;;;;;7.13;3.53;;;11.70;31.70;12.10;102646.00;;;;4935293;28;92305;-68
2022/03/21 09:26:29;;;;;;;3.43;2.67;;;11.90;31.00;12.10;102643.00;;;;4933505;28;93512;-67
2022/03/21 09:29:04;;;;;;;6.00;3.03;;;12.00;31.50;12.40;102649.00;;;;4934369;28;93016;-68
2022/03/21 09:31:35;;;;;;;5.53;2.80;;;12.20;31.70;12.70;102649.00;;;;4916364;28;93600;-67
2022/03/21 09:34:02;;;;;;;2.87;2.53;;;12.50;30.70;12.80;102652.00;;;;4928951;28;93255;-67
2022/03/21 09:36:27;;;;;;;5.70;3.40;;;12.60;30.50;12.90;102649.00;;;;4951936;28;109270;-67
2022/03/21 09:38:54;;;;;;;3.63;2.17;;;12.70;30.20;12.90;102656.00;;;;4943233;28;92974;-68
2022/03/21 09:41:28;;;;;;;6.77;3.17;;;12.80;29.40;12.80;102650.00;;;;4947896;28;92942;-69
2022/03/21 09:44:00;;;;;;;6.07;3.73;;;12.80;29.60;12.90;102642.00;;;;4930457;28;92953;-69
2022/03/21 09:46:26;;;;;;;5.67;3.30;;;12.80;29.70;13.00;102638.00;;;;4932174;28;92826;-68
2022/03/21 09:48:55;;;;;;;6.13;3.20;;;12.90;29.70;13.20;102650.00;;;;4937798;28;103711;-69
2022/03/21 09:51:23;;;;;;;6.53;2.90;;;13.00;29.80;13.30;102643.00;;;;4952769;28;92950;-68
2022/03/21 09:53:49;;;;;;;5.37;2.60;;;13.20;29.40;13.40;102653.00;;;;4942806;28;93034;-68
2022/03/21 09:56:16;;;;;;;4.43;2.80;;;13.20;29.30;13.40;102649.00;;;;4931553;28;93871;-68
2022/03/21 09:58:43;;;;;;;5.57;2.47;;;13.30;29.30;13.50;102645.00;;;;4940399;28;93050;-67
2022/03/21 10:01:11;;;;;;;5.07;3.00;;;13.30;29.50;13.60;102627.00;;;;4951420;28;92998;-72
2022/03/21 10:03:41;;;;;;;2.40;1.90;;;13.40;29.20;13.60;102638.00;;;;4951449;28;94384;-72
2022/03/21 10:06:27;;;;;;;4.93;2.30;;;13.50;28.80;13.70;102639.00;;;;4931677;28;94113;-72
2022/03/21 10:09:10;;;;;;;3.50;2.33;;;13.50;28.80;13.70;102634.00;;;;4942682;28;92685;-73
2022/03/21 10:11:39;;;;;;;2.97;2.63;;;13.60;28.70;13.70;102628.00;;;;4950335;28;92913;-72
2022/03/21 10:14:43;;;;;;;4.13;3.13;;;13.60;29.10;14.10;102633.00;;;;4951567;28;93869;-72
2022/03/21 10:17:14;;;;;;;3.33;2.10;;;13.80;29.40;14.10;102633.00;;;;4875949;28;97615;-73
2022/03/21 10:19:52;;;;;;;3.83;2.47;;;14.00;28.10;14.00;102619.00;;;;4907101;28;93040;-71
2022/03/21 10:22:33;;;;;;;4.80;3.40;;;14.00;27.70;14.00;102624.00;;;;4893584;28;94076;-72
2022/03/21 10:25:08;;;;;;;3.90;2.30;;;13.90;27.70;14.10;102623.00;;;;4930006;28;122706;-73
2022/03/21 10:27:41;;;;;;;5.80;2.23;;;13.90;28.10;14.20;102610.00;;;;4931856;28;93050;-73
2022/03/21 10:30:09;;;;;;;2.63;2.07;;;14.00;28.40;14.40;102617.00;;;;4931726;28;95318;-72
2022/03/21 10:32:51;;;;;;;10.10;3.00;;;14.10;27.90;14.50;102617.00;;;;4894453;28;1127862;-73
2022/03/21 10:35:26;;;;;;;5.90;2.70;;;14.20;28.10;14.70;102631.00;;;;4930000;28;93173;-73
2022/03/21 10:37:56;;;;;;;3.80;2.40;;;14.40;28.20;14.70;102620.00;;;;4930103;28;93610;-72
2022/03/21 10:40:30;;;;;;;4.70;2.63;;;14.60;27.30;14.80;102617.00;;;;4953122;28;92065;-73
2022/03/21 10:43:05;;;;;;;5.07;3.00;;;14.60;27.70;15.10;102621.00;;;;4951048;28;92883;-74
2022/03/21 10:45:43;;;;;;;6.88;3.88;;;14.80;27.50;15.30;102610.00;;;;4934091;28;93305;-71
2022/03/21 10:48:26;;;;;;;3.85;2.83;;;15.00;27.80;15.50;102610.00;;;;4948774;28;93768;-72
2022/03/21 10:50:55;;;;;;;4.10;2.60;;;15.20;27.50;15.60;102606.00;;;;4918128;28;93088;-73
2022/03/21 10:53:27;;;;;;;2.95;2.50;;;15.30;27.60;15.70;102621.00;;;;4952660;28;93053;-72
2022/03/21 10:56:08;;;;;;;2.60;2.40;;;15.40;27.00;15.60;102603.00;;;;4916588;28;94750;-72
2022/03/21 10:58:47;;;;;;;6.00;2.83;;;15.50;26.60;15.70;102609.00;;;;4917964;28;94111;-73
2022/03/21 11:01:25;;;;;;;4.57;2.67;;;15.10;26.80;15.90;102604.00;;;;4936691;28;92926;-73
2022/03/21 11:03:56;;;;;;;6.82;2.40;;;15.60;27.00;15.90;102617.00;;;;4914210;28;92970;-72
2022/03/21 11:06:22;;;;;;;5.80;3.00;;;15.60;26.30;15.80;102602.00;;;;4930587;28;93944;-73
2022/03/21 11:08:51;;;;;;;4.28;2.75;;;15.60;26.10;15.80;102604.00;;;;4952796;28;93063;-74
2022/03/21 11:11:17;;;;;;;4.88;2.15;;;15.60;26.30;15.70;102603.00;;;;4951557;28;92750;-73